sensor_id;sensor_type;location;lat;lon;timestamp;P1;durP1;ratioP1;P2;durP2;ratioP2
23099;SDS011;53791;50.696;4.396;2022-11-15T00:01:12;7.30;;;6.70;;
23099;SDS011;53791;50.696;4.396;2022-11-15T00:03:36;6.92;;;6.40;;
23099;SDS011;53791;50.696;4.396;2022-11-15T00:06:04;8.55;;;7.58;;
23099;SDS011;53791;50.696;4.396;2022-11-15T00:08:32;19.02;;;7.67;;
23099;SDS011;53791;50.696;4.396;2022-11-15T00:11:00;8.15;;;7.45;;
23099;SDS011;53791;50.696;4.396;2022-11-15T00:13:29;7.40;;;6.80;;
23099;SDS011;53791;50.696;4.396;2022-11-15T00:15:57;7.25;;;6.65;;
23099;SDS011;53791;50.696;4.396;2022-11-15T00:18:26;8.68;;;7.83;;
23099;SDS011;53791;50.696;4.396;2022-11-15T00:20:54;13.25;;;7.37;;
23099;SDS011;53791;50.696;4.396;2022-11-15T00:23:23;7.37;;;6.80;;
23099;SDS011;53791;50.696;4.396;2022-11-15T00:25:57;7.33;;;6.70;;
23099;SDS011;53791;50.696;4.396;2022-11-15T00:28:25;6.95;;;6.45;;
23099;SDS011;53791;50.696;4.396;2022-11-15T00:30:52;8.35;;;7.55;;
23099;SDS011;53791;50.696;4.396;2022-11-15T00:33:20;8.30;;;7.58;;
23099;SDS011;53791;50.696;4.396;2022-11-15T00:35:47;9.03;;;8.05;;
23099;SDS011;53791;50.696;4.396;2022-11-15T00:38:15;8.28;;;7.58;;
23099;SDS011;53791;50.696;4.396;2022-11-15T00:40:42;7.97;;;7.17;;
23099;SDS011;53791;50.696;4.396;2022-11-15T00:43:10;7.62;;;6.92;;
23099;SDS011;53791;50.696;4.396;2022-11-15T00:45:37;8.50;;;7.60;;
23099;SDS011;53791;50.696;4.396;2022-11-15T00:48:05;6.60;;;6.10;;
23099;SDS011;53791;50.696;4.396;2022-11-15T00:50:32;8.33;;;6.92;;
23099;SDS011;53791;50.696;4.396;2022-11-15T00:53:00;10.03;;;8.40;;
23099;SDS011;53791;50.696;4.396;2022-11-15T00:55:27;8.35;;;7.62;;
23099;SDS011;53791;50.696;4.396;2022-11-15T00:57:55;10.48;;;7.28;;
23099;SDS011;53791;50.696;4.396;2022-11-15T01:00:22;8.83;;;8.13;;
23099;SDS011;53791;50.696;4.396;2022-11-15T01:02:50;7.90;;;7.25;;
23099;SDS011;53791;50.696;4.396;2022-11-15T01:05:17;8.43;;;7.67;;
23099;SDS011;53791;50.696;4.396;2022-11-15T01:07:45;8.13;;;7.37;;
23099;SDS011;53791;50.696;4.396;2022-11-15T01:10:13;11.55;;;8.15;;
23099;SDS011;53791;50.696;4.396;2022-11-15T01:12:40;8.88;;;7.90;;
23099;SDS011;53791;50.696;4.396;2022-11-15T01:15:08;8.40;;;7.70;;
23099;SDS011;53791;50.696;4.396;2022-11-15T01:17:35;9.48;;;8.03;;
23099;SDS011;53791;50.696;4.396;2022-11-15T01:20:03;7.12;;;6.47;;
23099;SDS011;53791;50.696;4.396;2022-11-15T01:22:31;6.90;;;6.30;;
23099;SDS011;53791;50.696;4.396;2022-11-15T01:24:58;7.47;;;6.87;;
23099;SDS011;53791;50.696;4.396;2022-11-15T01:27:26;7.70;;;7.03;;
23099;SDS011;53791;50.696;4.396;2022-11-15T01:29:54;7.45;;;6.75;;
23099;SDS011;53791;50.696;4.396;2022-11-15T01:32:22;7.30;;;6.70;;
23099;SDS011;53791;50.696;4.396;2022-11-15T01:34:49;7.05;;;6.47;;
23099;SDS011;53791;50.696;4.396;2022-11-15T01:37:17;6.78;;;6.17;;
23099;SDS011;53791;50.696;4.396;2022-11-15T01:39:44;28.98;;;6.97;;
23099;SDS011;53791;50.696;4.396;2022-11-15T01:42:12;7.42;;;6.83;;
23099;SDS011;53791;50.696;4.396;2022-11-15T01:47:27;8.23;;;7.35;;
23099;SDS011;53791;50.696;4.396;2022-11-15T01:50:03;7.65;;;6.95;;
23099;SDS011;53791;50.696;4.396;2022-11-15T01:52:30;10.78;;;7.28;;
23099;SDS011;53791;50.696;4.396;2022-11-15T01:57:47;6.60;;;6.10;;
23099;SDS011;53791;50.696;4.396;2022-11-15T02:00:17;7.42;;;6.83;;
23099;SDS011;53791;50.696;4.396;2022-11-15T02:02:45;7.35;;;6.83;;
23099;SDS011;53791;50.696;4.396;2022-11-15T02:05:13;9.05;;;6.97;;
23099;SDS011;53791;50.696;4.396;2022-11-15T02:07:40;8.23;;;7.45;;
23099;SDS011;53791;50.696;4.396;2022-11-15T02:10:09;9.98;;;7.83;;
23099;SDS011;53791;50.696;4.396;2022-11-15T02:12:38;16.67;;;8.10;;
23099;SDS011;53791;50.696;4.396;2022-11-15T02:15:07;8.58;;;7.75;;
23099;SDS011;53791;50.696;4.396;2022-11-15T02:17:46;12.68;;;7.92;;
23099;SDS011;53791;50.696;4.396;2022-11-15T02:26:16;13.03;;;7.17;;
23099;SDS011;53791;50.696;4.396;2022-11-15T02:34:25;8.35;;;7.65;;
23099;SDS011;53791;50.696;4.396;2022-11-15T02:37:16;7.60;;;7.00;;
23099;SDS011;53791;50.696;4.396;2022-11-15T02:40:07;7.42;;;6.83;;
23099;SDS011;53791;50.696;4.396;2022-11-15T02:42:50;7.87;;;7.25;;
23099;SDS011;53791;50.696;4.396;2022-11-15T02:45:41;7.40;;;6.80;;
23099;SDS011;53791;50.696;4.396;2022-11-15T02:48:13;6.97;;;6.42;;
23099;SDS011;53791;50.696;4.396;2022-11-15T02:50:43;7.20;;;6.60;;
23099;SDS011;53791;50.696;4.396;2022-11-15T02:53:11;7.12;;;6.53;;
23099;SDS011;53791;50.696;4.396;2022-11-15T02:55:48;16.57;;;7.30;;
23099;SDS011;53791;50.696;4.396;2022-11-15T02:58:23;8.60;;;6.87;;
23099;SDS011;53791;50.696;4.396;2022-11-15T03:04:04;7.80;;;7.10;;
23099;SDS011;53791;50.696;4.396;2022-11-15T03:06:35;7.30;;;6.70;;
23099;SDS011;53791;50.696;4.396;2022-11-15T03:12:09;7.62;;;6.92;;
23099;SDS011;53791;50.696;4.396;2022-11-15T03:14:51;7.15;;;6.60;;
23099;SDS011;53791;50.696;4.396;2022-11-15T03:17:28;7.47;;;6.87;;
23099;SDS011;53791;50.696;4.396;2022-11-15T03:19:56;6.72;;;6.12;;
23099;SDS011;53791;50.696;4.396;2022-11-15T03:22:26;6.72;;;6.15;;
23099;SDS011;53791;50.696;4.396;2022-11-15T03:24:57;6.75;;;6.25;;
23099;SDS011;53791;50.696;4.396;2022-11-15T03:27:27;6.35;;;5.85;;
23099;SDS011;53791;50.696;4.396;2022-11-15T03:30:03;7.03;;;6.42;;
23099;SDS011;53791;50.696;4.396;2022-11-15T03:32:31;6.67;;;6.15;;
23099;SDS011;53791;50.696;4.396;2022-11-15T03:35:08;6.97;;;6.47;;
23099;SDS011;53791;50.696;4.396;2022-11-15T03:37:49;6.20;;;5.70;;
23099;SDS011;53791;50.696;4.396;2022-11-15T03:40:40;7.22;;;6.62;;
23099;SDS011;53791;50.696;4.396;2022-11-15T03:43:18;6.50;;;6.00;;
23099;SDS011;53791;50.696;4.396;2022-11-15T03:45:54;6.35;;;5.87;;
23099;SDS011;53791;50.696;4.396;2022-11-15T03:48:25;6.60;;;6.10;;
23099;SDS011;53791;50.696;4.396;2022-11-15T03:50:55;6.67;;;6.17;;
23099;SDS011;53791;50.696;4.396;2022-11-15T03:53:22;6.85;;;6.10;;
23099;SDS011;53791;50.696;4.396;2022-11-15T03:55:50;6.42;;;5.92;;
23099;SDS011;53791;50.696;4.396;2022-11-15T03:58:18;6.83;;;6.22;;
23099;SDS011;53791;50.696;4.396;2022-11-15T04:00:45;6.50;;;5.90;;
23099;SDS011;53791;50.696;4.396;2022-11-15T04:03:13;6.22;;;5.72;;
23099;SDS011;53791;50.696;4.396;2022-11-15T04:05:40;6.85;;;6.35;;
23099;SDS011;53791;50.696;4.396;2022-11-15T04:08:08;6.58;;;6.05;;
23099;SDS011;53791;50.696;4.396;2022-11-15T04:10:35;6.15;;;5.75;;
23099;SDS011;53791;50.696;4.396;2022-11-15T04:13:03;6.78;;;6.28;;
23099;SDS011;53791;50.696;4.396;2022-11-15T04:15:30;6.90;;;6.30;;
23099;SDS011;53791;50.696;4.396;2022-11-15T04:17:58;7.55;;;6.85;;
23099;SDS011;53791;50.696;4.396;2022-11-15T04:20:26;6.08;;;5.67;;
23099;SDS011;53791;50.696;4.396;2022-11-15T04:23:15;6.85;;;6.35;;
23099;SDS011;53791;50.696;4.396;2022-11-15T04:26:02;6.87;;;6.35;;
23099;SDS011;53791;50.696;4.396;2022-11-15T04:28:32;7.55;;;6.90;;
23099;SDS011;53791;50.696;4.396;2022-11-15T04:31:00;6.40;;;5.95;;
23099;SDS011;53791;50.696;4.396;2022-11-15T04:33:27;6.92;;;6.42;;
23099;SDS011;53791;50.696;4.396;2022-11-15T04:35:55;6.17;;;5.78;;
23099;SDS011;53791;50.696;4.396;2022-11-15T04:38:41;6.55;;;6.05;;
23099;SDS011;53791;50.696;4.396;2022-11-15T04:41:08;6.47;;;6.08;;
23099;SDS011;53791;50.696;4.396;2022-11-15T04:43:36;6.85;;;6.35;;
23099;SDS011;53791;50.696;4.396;2022-11-15T04:46:03;6.97;;;6.47;;
23099;SDS011;53791;50.696;4.396;2022-11-15T04:48:31;6.70;;;6.20;;
23099;SDS011;53791;50.696;4.396;2022-11-15T04:50:58;6.08;;;5.67;;
23099;SDS011;53791;50.696;4.396;2022-11-15T04:53:26;6.20;;;5.70;;
23099;SDS011;53791;50.696;4.396;2022-11-15T04:55:53;6.40;;;5.97;;
23099;SDS011;53791;50.696;4.396;2022-11-15T04:58:21;6.30;;;5.90;;
23099;SDS011;53791;50.696;4.396;2022-11-15T05:00:48;7.53;;;6.80;;
23099;SDS011;53791;50.696;4.396;2022-11-15T05:03:16;6.97;;;6.47;;
23099;SDS011;53791;50.696;4.396;2022-11-15T05:06:01;6.80;;;6.30;;
23099;SDS011;53791;50.696;4.396;2022-11-15T05:08:29;6.90;;;6.40;;
23099;SDS011;53791;50.696;4.396;2022-11-15T05:10:56;6.97;;;6.47;;
23099;SDS011;53791;50.696;4.396;2022-11-15T05:13:24;7.28;;;6.62;;
23099;SDS011;53791;50.696;4.396;2022-11-15T05:15:51;6.90;;;6.40;;
23099;SDS011;53791;50.696;4.396;2022-11-15T05:18:19;7.08;;;6.58;;
23099;SDS011;53791;50.696;4.396;2022-11-15T05:20:46;7.15;;;6.55;;
23099;SDS011;53791;50.696;4.396;2022-11-15T05:23:14;6.30;;;5.90;;
23099;SDS011;53791;50.696;4.396;2022-11-15T05:25:41;6.60;;;6.10;;
23099;SDS011;53791;50.696;4.396;2022-11-15T05:28:09;6.20;;;5.80;;
23099;SDS011;53791;50.696;4.396;2022-11-15T05:30:36;11.40;;;6.60;;
23099;SDS011;53791;50.696;4.396;2022-11-15T05:33:04;6.30;;;5.87;;
23099;SDS011;53791;50.696;4.396;2022-11-15T05:35:37;7.08;;;6.58;;
23099;SDS011;53791;50.696;4.396;2022-11-15T05:38:02;6.62;;;6.03;;
23099;SDS011;53791;50.696;4.396;2022-11-15T05:40:30;6.95;;;5.87;;
23099;SDS011;53791;50.696;4.396;2022-11-15T05:42:59;6.05;;;5.65;;
23099;SDS011;53791;50.696;4.396;2022-11-15T05:45:28;7.05;;;6.40;;
23099;SDS011;53791;50.696;4.396;2022-11-15T05:47:56;10.65;;;6.03;;
23099;SDS011;53791;50.696;4.396;2022-11-15T05:50:27;6.60;;;6.10;;
23099;SDS011;53791;50.696;4.396;2022-11-15T05:52:55;5.70;;;5.30;;
23099;SDS011;53791;50.696;4.396;2022-11-15T05:55:23;6.15;;;5.72;;
23099;SDS011;53791;50.696;4.396;2022-11-15T05:57:51;6.75;;;6.25;;
23099;SDS011;53791;50.696;4.396;2022-11-15T06:00:19;6.20;;;5.80;;
23099;SDS011;53791;50.696;4.396;2022-11-15T06:02:46;6.92;;;6.33;;
23099;SDS011;53791;50.696;4.396;2022-11-15T06:05:14;6.50;;;6.03;;
23099;SDS011;53791;50.696;4.396;2022-11-15T06:07:41;7.90;;;6.55;;
23099;SDS011;53791;50.696;4.396;2022-11-15T06:10:09;6.45;;;5.95;;
23099;SDS011;53791;50.696;4.396;2022-11-15T06:12:37;6.50;;;6.00;;
23099;SDS011;53791;50.696;4.396;2022-11-15T06:15:05;6.58;;;6.08;;
23099;SDS011;53791;50.696;4.396;2022-11-15T06:17:33;7.15;;;6.37;;
23099;SDS011;53791;50.696;4.396;2022-11-15T06:20:00;6.22;;;5.83;;
23099;SDS011;53791;50.696;4.396;2022-11-15T06:22:29;6.60;;;6.10;;
23099;SDS011;53791;50.696;4.396;2022-11-15T06:24:56;6.50;;;6.00;;
23099;SDS011;53791;50.696;4.396;2022-11-15T06:27:24;6.30;;;5.70;;
23099;SDS011;53791;50.696;4.396;2022-11-15T06:29:51;7.08;;;6.15;;
23099;SDS011;53791;50.696;4.396;2022-11-15T06:32:19;7.00;;;6.40;;
23099;SDS011;53791;50.696;4.396;2022-11-15T06:34:46;6.40;;;5.90;;
23099;SDS011;53791;50.696;4.396;2022-11-15T06:37:14;6.00;;;5.60;;
23099;SDS011;53791;50.696;4.396;2022-11-15T06:39:41;6.08;;;5.67;;
23099;SDS011;53791;50.696;4.396;2022-11-15T06:42:09;6.35;;;5.95;;
23099;SDS011;53791;50.696;4.396;2022-11-15T06:44:36;5.95;;;5.55;;
23099;SDS011;53791;50.696;4.396;2022-11-15T06:47:04;6.20;;;5.60;;
23099;SDS011;53791;50.696;4.396;2022-11-15T06:49:31;6.60;;;6.10;;
23099;SDS011;53791;50.696;4.396;2022-11-15T06:51:59;7.80;;;6.47;;
23099;SDS011;53791;50.696;4.396;2022-11-15T06:54:26;6.30;;;5.80;;
23099;SDS011;53791;50.696;4.396;2022-11-15T06:56:54;7.40;;;6.67;;
23099;SDS011;53791;50.696;4.396;2022-11-15T06:59:21;5.72;;;5.33;;
23099;SDS011;53791;50.696;4.396;2022-11-15T07:01:49;6.00;;;5.60;;
23099;SDS011;53791;50.696;4.396;2022-11-15T07:04:16;6.40;;;5.90;;
23099;SDS011;53791;50.696;4.396;2022-11-15T07:06:46;6.55;;;6.05;;
23099;SDS011;53791;50.696;4.396;2022-11-15T07:09:15;6.37;;;5.87;;
23099;SDS011;53791;50.696;4.396;2022-11-15T07:11:42;6.40;;;5.90;;
23099;SDS011;53791;50.696;4.396;2022-11-15T07:14:10;6.40;;;5.80;;
23099;SDS011;53791;50.696;4.396;2022-11-15T07:16:37;5.65;;;5.25;;
23099;SDS011;53791;50.696;4.396;2022-11-15T07:19:05;6.33;;;5.83;;
23099;SDS011;53791;50.696;4.396;2022-11-15T07:21:32;6.53;;;5.92;;
23099;SDS011;53791;50.696;4.396;2022-11-15T07:24:00;5.90;;;5.50;;
23099;SDS011;53791;50.696;4.396;2022-11-15T07:26:27;5.90;;;5.50;;
23099;SDS011;53791;50.696;4.396;2022-11-15T07:28:55;9.10;;;7.30;;
23099;SDS011;53791;50.696;4.396;2022-11-15T07:31:22;8.55;;;6.70;;
23099;SDS011;53791;50.696;4.396;2022-11-15T07:33:51;6.00;;;5.60;;
23099;SDS011;53791;50.696;4.396;2022-11-15T07:36:18;6.33;;;5.83;;
23099;SDS011;53791;50.696;4.396;2022-11-15T07:38:46;6.62;;;6.12;;
23099;SDS011;53791;50.696;4.396;2022-11-15T07:41:13;6.20;;;5.70;;
23099;SDS011;53791;50.696;4.396;2022-11-15T07:43:41;6.05;;;5.65;;
23099;SDS011;53791;50.696;4.396;2022-11-15T07:46:08;5.78;;;5.37;;
23099;SDS011;53791;50.696;4.396;2022-11-15T07:48:37;6.50;;;6.00;;
23099;SDS011;53791;50.696;4.396;2022-11-15T07:51:06;6.67;;;6.17;;
23099;SDS011;53791;50.696;4.396;2022-11-15T07:53:35;8.55;;;6.42;;
23099;SDS011;53791;50.696;4.396;2022-11-15T07:56:05;7.95;;;7.30;;
23099;SDS011;53791;50.696;4.396;2022-11-15T07:58:33;7.78;;;6.92;;
23099;SDS011;53791;50.696;4.396;2022-11-15T08:01:04;7.10;;;6.60;;
23099;SDS011;53791;50.696;4.396;2022-11-15T08:03:33;7.35;;;6.85;;
23099;SDS011;53791;50.696;4.396;2022-11-15T08:06:01;6.45;;;6.05;;
23099;SDS011;53791;50.696;4.396;2022-11-15T08:08:29;6.95;;;6.45;;
23099;SDS011;53791;50.696;4.396;2022-11-15T08:10:59;8.00;;;7.50;;
23099;SDS011;53791;50.696;4.396;2022-11-15T08:13:27;7.85;;;7.28;;
23099;SDS011;53791;50.696;4.396;2022-11-15T08:15:58;7.30;;;6.80;;
23099;SDS011;53791;50.696;4.396;2022-11-15T08:18:26;7.37;;;6.87;;
23099;SDS011;53791;50.696;4.396;2022-11-15T08:20:57;7.55;;;6.95;;
23099;SDS011;53791;50.696;4.396;2022-11-15T08:23:26;7.85;;;7.25;;
23099;SDS011;53791;50.696;4.396;2022-11-15T08:26:04;8.03;;;7.30;;
23099;SDS011;53791;50.696;4.396;2022-11-15T08:28:27;8.23;;;7.50;;
23099;SDS011;53791;50.696;4.396;2022-11-15T08:30:54;7.58;;;7.08;;
23099;SDS011;53791;50.696;4.396;2022-11-15T08:33:22;7.65;;;7.10;;
23099;SDS011;53791;50.696;4.396;2022-11-15T08:35:50;7.80;;;7.30;;
23099;SDS011;53791;50.696;4.396;2022-11-15T08:38:17;8.18;;;7.53;;
23099;SDS011;53791;50.696;4.396;2022-11-15T08:40:45;7.80;;;7.20;;
23099;SDS011;53791;50.696;4.396;2022-11-15T08:43:12;7.65;;;7.15;;
23099;SDS011;53791;50.696;4.396;2022-11-15T08:45:40;7.90;;;7.40;;
23099;SDS011;53791;50.696;4.396;2022-11-15T08:48:07;7.25;;;6.75;;
23099;SDS011;53791;50.696;4.396;2022-11-15T08:50:35;7.00;;;6.50;;
23099;SDS011;53791;50.696;4.396;2022-11-15T08:53:06;8.13;;;7.55;;
23099;SDS011;53791;50.696;4.396;2022-11-15T08:55:37;7.78;;;7.28;;
23099;SDS011;53791;50.696;4.396;2022-11-15T08:58:06;8.28;;;7.35;;
23099;SDS011;53791;50.696;4.396;2022-11-15T09:00:34;7.55;;;7.05;;
23099;SDS011;53791;50.696;4.396;2022-11-15T09:03:05;7.20;;;6.70;;
23099;SDS011;53791;50.696;4.396;2022-11-15T09:05:37;7.20;;;6.70;;
23099;SDS011;53791;50.696;4.396;2022-11-15T09:08:05;7.30;;;6.80;;
23099;SDS011;53791;50.696;4.396;2022-11-15T09:10:32;7.70;;;7.10;;
23099;SDS011;53791;50.696;4.396;2022-11-15T09:13:00;7.40;;;6.90;;
23099;SDS011;53791;50.696;4.396;2022-11-15T09:15:27;7.25;;;6.75;;
23099;SDS011;53791;50.696;4.396;2022-11-15T09:17:57;7.37;;;6.87;;
23099;SDS011;53791;50.696;4.396;2022-11-15T09:20:26;8.05;;;7.45;;
23099;SDS011;53791;50.696;4.396;2022-11-15T09:22:54;7.47;;;6.97;;
23099;SDS011;53791;50.696;4.396;2022-11-15T09:25:23;7.47;;;6.95;;
23099;SDS011;53791;50.696;4.396;2022-11-15T09:27:51;7.53;;;7.03;;
23099;SDS011;53791;50.696;4.396;2022-11-15T09:30:18;8.08;;;7.47;;
23099;SDS011;53791;50.696;4.396;2022-11-15T09:32:46;7.65;;;7.15;;
23099;SDS011;53791;50.696;4.396;2022-11-15T09:35:13;33.53;;;8.75;;
23099;SDS011;53791;50.696;4.396;2022-11-15T09:37:41;8.45;;;7.65;;
23099;SDS011;53791;50.696;4.396;2022-11-15T09:40:12;8.65;;;7.95;;
23099;SDS011;53791;50.696;4.396;2022-11-15T09:45:23;13.65;;;8.33;;
23099;SDS011;53791;50.696;4.396;2022-11-15T09:50:57;7.67;;;7.17;;
23099;SDS011;53791;50.696;4.396;2022-11-15T09:53:36;7.60;;;7.10;;
23099;SDS011;53791;50.696;4.396;2022-11-15T09:56:02;7.30;;;6.80;;
23099;SDS011;53791;50.696;4.396;2022-11-15T09:58:44;16.12;;;7.83;;
23099;SDS011;53791;50.696;4.396;2022-11-15T10:01:46;8.33;;;7.55;;
23099;SDS011;53791;50.696;4.396;2022-11-15T10:04:15;7.78;;;7.28;;
23099;SDS011;53791;50.696;4.396;2022-11-15T10:06:45;7.40;;;6.90;;
23099;SDS011;53791;50.696;4.396;2022-11-15T10:12:22;7.92;;;7.33;;
23099;SDS011;53791;50.696;4.396;2022-11-15T10:14:50;7.90;;;7.30;;
23099;SDS011;53791;50.696;4.396;2022-11-15T10:20:27;7.90;;;7.40;;
23099;SDS011;53791;50.696;4.396;2022-11-15T10:22:59;8.15;;;7.55;;
23099;SDS011;53791;50.696;4.396;2022-11-15T10:25:28;7.65;;;7.15;;
23099;SDS011;53791;50.696;4.396;2022-11-15T10:27:58;7.83;;;7.25;;
23099;SDS011;53791;50.696;4.396;2022-11-15T10:30:32;8.35;;;7.67;;
23099;SDS011;53791;50.696;4.396;2022-11-15T10:35:48;7.60;;;7.08;;
23099;SDS011;53791;50.696;4.396;2022-11-15T10:38:17;7.50;;;7.00;;
23099;SDS011;53791;50.696;4.396;2022-11-15T10:40:45;7.47;;;6.97;;
23099;SDS011;53791;50.696;4.396;2022-11-15T10:43:13;7.60;;;7.10;;
23099;SDS011;53791;50.696;4.396;2022-11-15T10:45:43;7.40;;;6.90;;
23099;SDS011;53791;50.696;4.396;2022-11-15T10:48:21;7.40;;;6.90;;
23099;SDS011;53791;50.696;4.396;2022-11-15T10:50:42;7.03;;;6.53;;
23099;SDS011;53791;50.696;4.396;2022-11-15T10:53:25;7.40;;;6.90;;
23099;SDS011;53791;50.696;4.396;2022-11-15T10:55:55;7.92;;;7.33;;
23099;SDS011;53791;50.696;4.396;2022-11-15T10:58:35;8.13;;;7.53;;
23099;SDS011;53791;50.696;4.396;2022-11-15T11:01:11;7.35;;;6.85;;
23099;SDS011;53791;50.696;4.396;2022-11-15T11:06:27;7.03;;;6.47;;
23099;SDS011;53791;50.696;4.396;2022-11-15T11:08:59;7.78;;;7.17;;
23099;SDS011;53791;50.696;4.396;2022-11-15T11:11:50;7.25;;;6.75;;
23099;SDS011;53791;50.696;4.396;2022-11-15T11:19:39;7.50;;;7.00;;
23099;SDS011;53791;50.696;4.396;2022-11-15T11:22:32;7.25;;;6.75;;
23099;SDS011;53791;50.696;4.396;2022-11-15T11:25:29;7.47;;;6.97;;
23099;SDS011;53791;50.696;4.396;2022-11-15T11:30:55;7.40;;;6.90;;
23099;SDS011;53791;50.696;4.396;2022-11-15T11:33:25;7.20;;;6.70;;
23099;SDS011;53791;50.696;4.396;2022-11-15T11:36:00;7.45;;;6.85;;
23099;SDS011;53791;50.696;4.396;2022-11-15T11:38:39;8.23;;;7.08;;
23099;SDS011;53791;50.696;4.396;2022-11-15T11:44:02;10.03;;;5.78;;
23099;SDS011;53791;50.696;4.396;2022-11-15T11:46:38;6.62;;;6.03;;
23099;SDS011;53791;50.696;4.396;2022-11-15T11:52:09;6.80;;;6.30;;
23099;SDS011;53791;50.696;4.396;2022-11-15T11:57:13;6.65;;;6.20;;
23099;SDS011;53791;50.696;4.396;2022-11-15T12:02:26;6.33;;;5.80;;
23099;SDS011;53791;50.696;4.396;2022-11-15T12:05:01;6.50;;;6.10;;
23099;SDS011;53791;50.696;4.396;2022-11-15T12:07:44;6.17;;;5.78;;
23099;SDS011;53791;50.696;4.396;2022-11-15T12:10:19;5.80;;;5.40;;
23099;SDS011;53791;50.696;4.396;2022-11-15T12:12:55;6.20;;;5.80;;
23099;SDS011;53791;50.696;4.396;2022-11-15T12:15:31;6.40;;;6.00;;
23099;SDS011;53791;50.696;4.396;2022-11-15T12:18:19;5.92;;;5.53;;
23099;SDS011;53791;50.696;4.396;2022-11-15T12:20:54;7.05;;;6.42;;
23099;SDS011;53791;50.696;4.396;2022-11-15T12:23:24;5.80;;;5.40;;
23099;SDS011;53791;50.696;4.396;2022-11-15T12:26:16;6.08;;;5.67;;
23099;SDS011;53791;50.696;4.396;2022-11-15T12:28:55;5.72;;;5.22;;
23099;SDS011;53791;50.696;4.396;2022-11-15T12:31:35;6.30;;;5.85;;
23099;SDS011;53791;50.696;4.396;2022-11-15T12:34:01;5.50;;;5.10;;
23099;SDS011;53791;50.696;4.396;2022-11-15T12:36:35;6.00;;;5.60;;
23099;SDS011;53791;50.696;4.396;2022-11-15T12:39:05;5.95;;;5.55;;
23099;SDS011;53791;50.696;4.396;2022-11-15T12:41:37;6.72;;;6.00;;
23099;SDS011;53791;50.696;4.396;2022-11-15T12:44:05;6.30;;;5.90;;
23099;SDS011;53791;50.696;4.396;2022-11-15T12:52:06;6.17;;;5.78;;
23099;SDS011;53791;50.696;4.396;2022-11-15T13:02:34;6.28;;;5.87;;
23099;SDS011;53791;50.696;4.396;2022-11-15T13:05:26;6.33;;;5.83;;
23099;SDS011;53791;50.696;4.396;2022-11-15T13:07:57;5.80;;;5.40;;
23099;SDS011;53791;50.696;4.396;2022-11-15T13:10:28;5.70;;;5.30;;
23099;SDS011;53791;50.696;4.396;2022-11-15T13:13:04;6.42;;;5.97;;
23099;SDS011;53791;50.696;4.396;2022-11-15T13:15:37;6.30;;;5.90;;
23099;SDS011;53791;50.696;4.396;2022-11-15T13:18:32;5.50;;;5.10;;
23099;SDS011;53791;50.696;4.396;2022-11-15T13:20:58;5.50;;;5.10;;
23099;SDS011;53791;50.696;4.396;2022-11-15T13:23:26;5.80;;;5.40;;
23099;SDS011;53791;50.696;4.396;2022-11-15T13:25:57;5.58;;;5.17;;
23099;SDS011;53791;50.696;4.396;2022-11-15T13:28:38;5.22;;;4.83;;
23099;SDS011;53791;50.696;4.396;2022-11-15T13:31:17;5.33;;;4.92;;
23099;SDS011;53791;50.696;4.396;2022-11-15T13:33:47;5.22;;;4.83;;
23099;SDS011;53791;50.696;4.396;2022-11-15T13:36:32;5.40;;;5.00;;
23099;SDS011;53791;50.696;4.396;2022-11-15T13:39:05;5.40;;;5.00;;
23099;SDS011;53791;50.696;4.396;2022-11-15T13:41:34;5.92;;;5.42;;
23099;SDS011;53791;50.696;4.396;2022-11-15T13:44:05;5.50;;;5.10;;
23099;SDS011;53791;50.696;4.396;2022-11-15T13:46:35;5.60;;;5.20;;
23099;SDS011;53791;50.696;4.396;2022-11-15T13:49:04;5.47;;;5.08;;
23099;SDS011;53791;50.696;4.396;2022-11-15T13:51:43;6.15;;;5.40;;
23099;SDS011;53791;50.696;4.396;2022-11-15T13:54:24;5.62;;;5.12;;
23099;SDS011;53791;50.696;4.396;2022-11-15T13:56:51;5.42;;;5.03;;
23099;SDS011;53791;50.696;4.396;2022-11-15T13:59:25;5.40;;;5.00;;
23099;SDS011;53791;50.696;4.396;2022-11-15T14:01:55;5.40;;;4.90;;
23099;SDS011;53791;50.696;4.396;2022-11-15T14:04:25;5.80;;;5.40;;
23099;SDS011;53791;50.696;4.396;2022-11-15T14:06:57;7.37;;;4.85;;
23099;SDS011;53791;50.696;4.396;2022-11-15T14:09:30;5.20;;;4.80;;
23099;SDS011;53791;50.696;4.396;2022-11-15T14:11:59;4.90;;;4.60;;
23099;SDS011;53791;50.696;4.396;2022-11-15T14:14:28;5.28;;;4.87;;
23099;SDS011;53791;50.696;4.396;2022-11-15T14:16:58;5.70;;;5.30;;
23099;SDS011;53791;50.696;4.396;2022-11-15T14:27:33;5.60;;;5.20;;
23099;SDS011;53791;50.696;4.396;2022-11-15T14:30:00;5.70;;;5.25;;
23099;SDS011;53791;50.696;4.396;2022-11-15T14:32:29;5.20;;;4.80;;
23099;SDS011;53791;50.696;4.396;2022-11-15T14:34:59;5.28;;;4.87;;
23099;SDS011;53791;50.696;4.396;2022-11-15T14:37:29;5.30;;;4.90;;
23099;SDS011;53791;50.696;4.396;2022-11-15T14:40:05;5.37;;;4.97;;
23099;SDS011;53791;50.696;4.396;2022-11-15T14:42:30;5.33;;;4.92;;
23099;SDS011;53791;50.696;4.396;2022-11-15T14:44:58;5.85;;;5.45;;
23099;SDS011;53791;50.696;4.396;2022-11-15T14:47:25;5.12;;;4.72;;
23099;SDS011;53791;50.696;4.396;2022-11-15T14:49:53;5.53;;;5.12;;
23099;SDS011;53791;50.696;4.396;2022-11-15T14:52:30;5.58;;;5.17;;
23099;SDS011;53791;50.696;4.396;2022-11-15T14:54:58;5.30;;;4.90;;
23099;SDS011;53791;50.696;4.396;2022-11-15T14:57:28;4.80;;;4.50;;
23099;SDS011;53791;50.696;4.396;2022-11-15T14:59:55;5.25;;;4.85;;
23099;SDS011;53791;50.696;4.396;2022-11-15T15:02:24;5.50;;;5.10;;
23099;SDS011;53791;50.696;4.396;2022-11-15T15:04:53;5.20;;;4.80;;
23099;SDS011;53791;50.696;4.396;2022-11-15T15:07:21;4.80;;;4.50;;
23099;SDS011;53791;50.696;4.396;2022-11-15T15:09:49;5.50;;;5.10;;
23099;SDS011;53791;50.696;4.396;2022-11-15T15:12:17;5.17;;;4.78;;
23099;SDS011;53791;50.696;4.396;2022-11-15T15:14:47;5.30;;;4.90;;
23099;SDS011;53791;50.696;4.396;2022-11-15T15:17:16;5.28;;;4.87;;
23099;SDS011;53791;50.696;4.396;2022-11-15T15:19:43;5.00;;;4.60;;
23099;SDS011;53791;50.696;4.396;2022-11-15T15:22:13;4.87;;;4.47;;
23099;SDS011;53791;50.696;4.396;2022-11-15T15:24:42;5.00;;;4.60;;
23099;SDS011;53791;50.696;4.396;2022-11-15T15:27:10;5.10;;;4.70;;
23099;SDS011;53791;50.696;4.396;2022-11-15T15:29:38;5.42;;;5.03;;
23099;SDS011;53791;50.696;4.396;2022-11-15T15:32:06;4.70;;;4.40;;
23099;SDS011;53791;50.696;4.396;2022-11-15T15:34:34;5.05;;;4.65;;
23099;SDS011;53791;50.696;4.396;2022-11-15T15:39:51;5.83;;;4.85;;
23099;SDS011;53791;50.696;4.396;2022-11-15T15:42:19;5.50;;;5.00;;
23099;SDS011;53791;50.696;4.396;2022-11-15T15:44:47;5.28;;;4.87;;
23099;SDS011;53791;50.696;4.396;2022-11-15T15:47:21;5.10;;;4.70;;
23099;SDS011;53791;50.696;4.396;2022-11-15T15:49:50;5.37;;;4.95;;
23099;SDS011;53791;50.696;4.396;2022-11-15T15:52:17;5.00;;;4.60;;
23099;SDS011;53791;50.696;4.396;2022-11-15T15:54:45;5.20;;;4.80;;
23099;SDS011;53791;50.696;4.396;2022-11-15T15:57:13;5.42;;;5.03;;
23099;SDS011;53791;50.696;4.396;2022-11-15T15:59:42;6.35;;;5.75;;
23099;SDS011;53791;50.696;4.396;2022-11-15T16:02:13;6.60;;;6.15;;
23099;SDS011;53791;50.696;4.396;2022-11-15T16:04:40;6.53;;;6.12;;
23099;SDS011;53791;50.696;4.396;2022-11-15T16:07:12;5.80;;;5.40;;
23099;SDS011;53791;50.696;4.396;2022-11-15T16:09:44;6.55;;;6.05;;
23099;SDS011;53791;50.696;4.396;2022-11-15T16:12:31;7.05;;;6.28;;
23099;SDS011;53791;50.696;4.396;2022-11-15T16:15:02;6.78;;;6.28;;
23099;SDS011;53791;50.696;4.396;2022-11-15T16:17:31;6.75;;;6.25;;
23099;SDS011;53791;50.696;4.396;2022-11-15T16:20:00;6.92;;;6.42;;
23099;SDS011;53791;50.696;4.396;2022-11-15T16:22:29;10.63;;;7.00;;
23099;SDS011;53791;50.696;4.396;2022-11-15T16:24:56;6.70;;;6.20;;
23099;SDS011;53791;50.696;4.396;2022-11-15T16:27:24;7.12;;;6.53;;
23099;SDS011;53791;50.696;4.396;2022-11-15T16:29:51;7.10;;;6.60;;
23099;SDS011;53791;50.696;4.396;2022-11-15T16:32:19;7.25;;;6.70;;